sensor_id;sensor_type;location;lat;lon;timestamp;P1;durP1;ratioP1;P2;durP2;ratioP2
22737;SDS011;11536;50.860;4.286;2022-09-01T00:02:22;9.07;;;2.70;;
22737;SDS011;11536;50.860;4.286;2022-09-01T00:04:51;5.82;;;2.50;;
22737;SDS011;11536;50.860;4.286;2022-09-01T00:07:22;7.53;;;2.38;;
22737;SDS011;11536;50.860;4.286;2022-09-01T00:09:50;5.20;;;2.25;;
22737;SDS011;11536;50.860;4.286;2022-09-01T00:12:15;6.22;;;2.08;;
22737;SDS011;11536;50.860;4.286;2022-09-01T00:14:42;7.78;;;2.88;;
22737;SDS011;11536;50.860;4.286;2022-09-01T00:17:09;6.70;;;3.13;;
22737;SDS011;11536;50.860;4.286;2022-09-01T00:19:36;9.10;;;2.83;;
22737;SDS011;11536;50.860;4.286;2022-09-01T00:22:03;6.68;;;2.70;;
22737;SDS011;11536;50.860;4.286;2022-09-01T00:24:29;9.95;;;3.38;;
22737;SDS011;11536;50.860;4.286;2022-09-01T00:26:54;8.02;;;2.88;;
22737;SDS011;11536;50.860;4.286;2022-09-01T00:29:20;6.93;;;2.63;;
22737;SDS011;11536;50.860;4.286;2022-09-01T00:31:46;8.20;;;2.47;;
22737;SDS011;11536;50.860;4.286;2022-09-01T00:34:12;7.25;;;3.20;;
22737;SDS011;11536;50.860;4.286;2022-09-01T00:36:39;7.00;;;2.88;;
22737;SDS011;11536;50.860;4.286;2022-09-01T00:39:05;9.80;;;3.13;;
22737;SDS011;11536;50.860;4.286;2022-09-01T00:41:32;6.45;;;2.92;;
22737;SDS011;11536;50.860;4.286;2022-09-01T00:44:03;8.85;;;2.95;;
22737;SDS011;11536;50.860;4.286;2022-09-01T00:46:35;7.50;;;2.60;;
22737;SDS011;11536;50.860;4.286;2022-09-01T00:51:35;8.70;;;2.78;;
22737;SDS011;11536;50.860;4.286;2022-09-01T00:54:03;7.82;;;2.60;;
22737;SDS011;11536;50.860;4.286;2022-09-01T00:56:33;7.25;;;2.45;;
22737;SDS011;11536;50.860;4.286;2022-09-01T00:59:01;6.50;;;2.90;;
22737;SDS011;11536;50.860;4.286;2022-09-01T01:01:30;7.82;;;2.90;;
22737;SDS011;11536;50.860;4.286;2022-09-01T01:03:55;8.52;;;2.90;;
22737;SDS011;11536;50.860;4.286;2022-09-01T01:06:21;7.93;;;2.83;;
22737;SDS011;11536;50.860;4.286;2022-09-01T01:08:52;6.68;;;2.80;;
22737;SDS011;11536;50.860;4.286;2022-09-01T01:11:29;6.70;;;2.78;;
22737;SDS011;11536;50.860;4.286;2022-09-01T01:14:07;6.85;;;2.67;;
22737;SDS011;11536;50.860;4.286;2022-09-01T01:16:36;7.38;;;2.50;;
22737;SDS011;11536;50.860;4.286;2022-09-01T01:19:05;7.47;;;2.65;;
22737;SDS011;11536;50.860;4.286;2022-09-01T01:21:53;6.68;;;2.78;;
22737;SDS011;11536;50.860;4.286;2022-09-01T01:24:38;6.65;;;2.60;;
22737;SDS011;11536;50.860;4.286;2022-09-01T01:27:03;5.97;;;2.65;;
22737;SDS011;11536;50.860;4.286;2022-09-01T01:29:31;7.00;;;2.85;;
22737;SDS011;11536;50.860;4.286;2022-09-01T01:31:59;9.13;;;2.80;;
22737;SDS011;11536;50.860;4.286;2022-09-01T01:34:26;8.25;;;2.58;;
22737;SDS011;11536;50.860;4.286;2022-09-01T01:36:51;6.53;;;2.40;;
22737;SDS011;11536;50.860;4.286;2022-09-01T01:39:21;5.45;;;2.35;;
22737;SDS011;11536;50.860;4.286;2022-09-01T01:41:52;6.65;;;2.40;;
22737;SDS011;11536;50.860;4.286;2022-09-01T01:44:20;5.35;;;2.40;;
22737;SDS011;11536;50.860;4.286;2022-09-01T01:46:52;5.65;;;2.15;;
22737;SDS011;11536;50.860;4.286;2022-09-01T01:49:20;6.40;;;2.55;;
22737;SDS011;11536;50.860;4.286;2022-09-01T01:51:49;6.15;;;2.13;;
22737;SDS011;11536;50.860;4.286;2022-09-01T01:54:22;5.75;;;2.22;;
22737;SDS011;11536;50.860;4.286;2022-09-01T01:56:50;6.75;;;2.70;;
22737;SDS011;11536;50.860;4.286;2022-09-01T01:59:15;8.98;;;2.55;;
22737;SDS011;11536;50.860;4.286;2022-09-01T02:01:43;7.40;;;2.58;;
22737;SDS011;11536;50.860;4.286;2022-09-01T02:04:13;6.20;;;2.85;;
22737;SDS011;11536;50.860;4.286;2022-09-01T02:06:40;8.05;;;2.75;;
22737;SDS011;11536;50.860;4.286;2022-09-01T02:09:09;7.20;;;2.95;;
22737;SDS011;11536;50.860;4.286;2022-09-01T02:11:36;5.43;;;2.10;;
22737;SDS011;11536;50.860;4.286;2022-09-01T02:14:02;8.93;;;3.20;;
22737;SDS011;11536;50.860;4.286;2022-09-01T02:16:31;6.53;;;2.88;;
22737;SDS011;11536;50.860;4.286;2022-09-01T02:18:59;10.88;;;3.17;;
22737;SDS011;11536;50.860;4.286;2022-09-01T02:21:25;9.65;;;2.85;;
22737;SDS011;11536;50.860;4.286;2022-09-01T02:23:53;7.18;;;2.58;;
22737;SDS011;11536;50.860;4.286;2022-09-01T02:26:26;5.68;;;2.80;;
22737;SDS011;11536;50.860;4.286;2022-09-01T02:28:55;7.85;;;3.00;;
22737;SDS011;11536;50.860;4.286;2022-09-01T02:31:22;5.53;;;2.40;;
22737;SDS011;11536;50.860;4.286;2022-09-01T02:33:48;7.13;;;3.10;;
22737;SDS011;11536;50.860;4.286;2022-09-01T02:36:15;5.95;;;2.83;;
22737;SDS011;11536;50.860;4.286;2022-09-01T02:38:43;9.85;;;3.08;;
22737;SDS011;11536;50.860;4.286;2022-09-01T02:41:10;6.35;;;2.60;;
22737;SDS011;11536;50.860;4.286;2022-09-01T02:43:38;7.03;;;2.90;;
22737;SDS011;11536;50.860;4.286;2022-09-01T02:46:04;7.28;;;2.88;;
22737;SDS011;11536;50.860;4.286;2022-09-01T02:48:32;6.93;;;2.58;;
22737;SDS011;11536;50.860;4.286;2022-09-01T02:51:05;7.72;;;2.92;;
22737;SDS011;11536;50.860;4.286;2022-09-01T02:53:36;8.63;;;3.17;;
22737;SDS011;11536;50.860;4.286;2022-09-01T02:56:03;7.97;;;3.17;;
22737;SDS011;11536;50.860;4.286;2022-09-01T02:58:36;8.25;;;3.53;;
22737;SDS011;11536;50.860;4.286;2022-09-01T03:01:14;7.85;;;3.40;;
22737;SDS011;11536;50.860;4.286;2022-09-01T03:03:44;8.43;;;3.83;;
22737;SDS011;11536;50.860;4.286;2022-09-01T03:06:10;8.68;;;3.17;;
22737;SDS011;11536;50.860;4.286;2022-09-01T03:08:36;8.07;;;3.47;;
22737;SDS011;11536;50.860;4.286;2022-09-01T03:11:03;11.07;;;3.97;;
22737;SDS011;11536;50.860;4.286;2022-09-01T03:13:34;12.70;;;3.25;;
22737;SDS011;11536;50.860;4.286;2022-09-01T03:16:03;8.68;;;3.30;;
22737;SDS011;11536;50.860;4.286;2022-09-01T03:18:32;7.50;;;3.05;;
22737;SDS011;11536;50.860;4.286;2022-09-01T03:20:59;6.25;;;2.70;;
22737;SDS011;11536;50.860;4.286;2022-09-01T03:23:27;7.88;;;2.88;;
22737;SDS011;11536;50.860;4.286;2022-09-01T03:25:53;10.50;;;3.60;;
22737;SDS011;11536;50.860;4.286;2022-09-01T03:28:19;11.63;;;3.20;;
22737;SDS011;11536;50.860;4.286;2022-09-01T03:30:46;8.48;;;3.88;;
22737;SDS011;11536;50.860;4.286;2022-09-01T03:33:14;8.20;;;3.33;;
22737;SDS011;11536;50.860;4.286;2022-09-01T03:35:41;7.85;;;3.63;;
22737;SDS011;11536;50.860;4.286;2022-09-01T03:38:07;10.35;;;3.60;;
22737;SDS011;11536;50.860;4.286;2022-09-01T03:40:33;9.48;;;3.80;;
22737;SDS011;11536;50.860;4.286;2022-09-01T03:43:04;9.35;;;4.10;;
22737;SDS011;11536;50.860;4.286;2022-09-01T03:45:33;9.55;;;4.03;;
22737;SDS011;11536;50.860;4.286;2022-09-01T03:48:02;9.85;;;3.53;;
22737;SDS011;11536;50.860;4.286;2022-09-01T03:50:33;10.25;;;3.47;;
22737;SDS011;11536;50.860;4.286;2022-09-01T03:53:02;7.20;;;3.80;;
22737;SDS011;11536;50.860;4.286;2022-09-01T03:55:29;9.77;;;3.97;;
22737;SDS011;11536;50.860;4.286;2022-09-01T03:57:59;12.18;;;3.97;;
22737;SDS011;11536;50.860;4.286;2022-09-01T04:00:31;10.90;;;3.92;;
22737;SDS011;11536;50.860;4.286;2022-09-01T04:03:00;9.30;;;4.47;;
22737;SDS011;11536;50.860;4.286;2022-09-01T04:05:28;13.57;;;3.92;;
22737;SDS011;11536;50.860;4.286;2022-09-01T04:07:59;8.95;;;3.13;;
22737;SDS011;11536;50.860;4.286;2022-09-01T04:10:27;7.25;;;3.63;;
22737;SDS011;11536;50.860;4.286;2022-09-01T04:12:53;10.32;;;4.20;;
22737;SDS011;11536;50.860;4.286;2022-09-01T04:15:21;10.93;;;3.50;;
22737;SDS011;11536;50.860;4.286;2022-09-01T04:17:47;12.02;;;4.13;;
22737;SDS011;11536;50.860;4.286;2022-09-01T04:23:04;10.55;;;3.83;;
22737;SDS011;11536;50.860;4.286;2022-09-01T04:25:35;8.95;;;3.40;;
22737;SDS011;11536;50.860;4.286;2022-09-01T04:28:05;13.10;;;3.97;;
22737;SDS011;11536;50.860;4.286;2022-09-01T04:30:37;9.10;;;3.40;;
22737;SDS011;11536;50.860;4.286;2022-09-01T04:33:05;11.43;;;3.83;;
22737;SDS011;11536;50.860;4.286;2022-09-01T04:35:31;7.15;;;3.40;;
22737;SDS011;11536;50.860;4.286;2022-09-01T04:38:01;10.10;;;3.40;;
22737;SDS011;11536;50.860;4.286;2022-09-01T04:40:27;10.02;;;3.67;;
22737;SDS011;11536;50.860;4.286;2022-09-01T04:42:53;9.98;;;3.63;;
22737;SDS011;11536;50.860;4.286;2022-09-01T04:45:18;11.48;;;3.58;;
22737;SDS011;11536;50.860;4.286;2022-09-01T04:47:46;7.32;;;3.08;;
22737;SDS011;11536;50.860;4.286;2022-09-01T04:50:12;7.53;;;3.88;;
22737;SDS011;11536;50.860;4.286;2022-09-01T04:52:41;10.30;;;4.10;;
22737;SDS011;11536;50.860;4.286;2022-09-01T04:55:12;9.60;;;3.75;;
22737;SDS011;11536;50.860;4.286;2022-09-01T04:57:43;9.75;;;4.20;;
22737;SDS011;11536;50.860;4.286;2022-09-01T05:00:12;9.70;;;4.25;;
22737;SDS011;11536;50.860;4.286;2022-09-01T05:02:51;8.63;;;3.85;;
22737;SDS011;11536;50.860;4.286;2022-09-01T05:05:29;10.75;;;4.25;;
22737;SDS011;11536;50.860;4.286;2022-09-01T05:08:03;8.30;;;4.22;;
22737;SDS011;11536;50.860;4.286;2022-09-01T05:10:30;14.63;;;4.10;;
22737;SDS011;11536;50.860;4.286;2022-09-01T05:12:58;11.38;;;4.65;;
22737;SDS011;11536;50.860;4.286;2022-09-01T05:15:25;8.55;;;4.15;;
22737;SDS011;11536;50.860;4.286;2022-09-01T05:17:50;9.52;;;4.30;;
22737;SDS011;11536;50.860;4.286;2022-09-01T05:20:19;13.93;;;4.93;;
22737;SDS011;11536;50.860;4.286;2022-09-01T05:22:45;11.52;;;4.10;;
22737;SDS011;11536;50.860;4.286;2022-09-01T05:25:11;13.60;;;4.57;;
22737;SDS011;11536;50.860;4.286;2022-09-01T05:27:40;10.73;;;4.60;;
22737;SDS011;11536;50.860;4.286;2022-09-01T05:30:13;11.52;;;4.47;;
22737;SDS011;11536;50.860;4.286;2022-09-01T05:32:40;11.13;;;4.10;;
22737;SDS011;11536;50.860;4.286;2022-09-01T05:35:07;8.77;;;4.28;;
22737;SDS011;11536;50.860;4.286;2022-09-01T05:37:34;11.55;;;4.50;;
22737;SDS011;11536;50.860;4.286;2022-09-01T05:40:02;11.52;;;4.68;;
22737;SDS011;11536;50.860;4.286;2022-09-01T05:42:29;10.38;;;4.32;;
22737;SDS011;11536;50.860;4.286;2022-09-01T05:44:54;13.80;;;4.55;;
22737;SDS011;11536;50.860;4.286;2022-09-01T05:47:21;15.13;;;4.90;;
22737;SDS011;11536;50.860;4.286;2022-09-01T05:49:48;15.25;;;5.30;;
22737;SDS011;11536;50.860;4.286;2022-09-01T05:52:14;12.55;;;4.18;;
22737;SDS011;11536;50.860;4.286;2022-09-01T05:54:39;15.07;;;4.80;;
22737;SDS011;11536;50.860;4.286;2022-09-01T05:57:05;11.85;;;4.78;;
22737;SDS011;11536;50.860;4.286;2022-09-01T05:59:32;12.32;;;4.40;;
22737;SDS011;11536;50.860;4.286;2022-09-01T06:01:58;11.50;;;4.65;;
22737;SDS011;11536;50.860;4.286;2022-09-01T06:04:25;15.13;;;4.53;;
22737;SDS011;11536;50.860;4.286;2022-09-01T06:06:51;10.15;;;4.20;;
22737;SDS011;11536;50.860;4.286;2022-09-01T06:09:19;9.65;;;4.25;;
22737;SDS011;11536;50.860;4.286;2022-09-01T06:11:47;14.82;;;5.53;;
22737;SDS011;11536;50.860;4.286;2022-09-01T06:14:13;14.70;;;4.95;;
22737;SDS011;11536;50.860;4.286;2022-09-01T06:16:40;15.68;;;5.13;;
22737;SDS011;11536;50.860;4.286;2022-09-01T06:19:06;13.30;;;4.88;;
22737;SDS011;11536;50.860;4.286;2022-09-01T06:21:32;14.00;;;5.57;;
22737;SDS011;11536;50.860;4.286;2022-09-01T06:23:58;12.23;;;4.93;;
22737;SDS011;11536;50.860;4.286;2022-09-01T06:26:31;12.75;;;5.53;;
22737;SDS011;11536;50.860;4.286;2022-09-01T06:29:00;10.57;;;5.13;;
22737;SDS011;11536;50.860;4.286;2022-09-01T06:31:29;9.93;;;4.90;;
22737;SDS011;11536;50.860;4.286;2022-09-01T06:33:58;14.80;;;5.15;;
22737;SDS011;11536;50.860;4.286;2022-09-01T06:36:26;10.45;;;5.22;;
22737;SDS011;11536;50.860;4.286;2022-09-01T06:38:59;14.75;;;5.32;;
22737;SDS011;11536;50.860;4.286;2022-09-01T06:41:25;16.50;;;4.90;;
22737;SDS011;11536;50.860;4.286;2022-09-01T06:43:52;15.48;;;5.53;;
22737;SDS011;11536;50.860;4.286;2022-09-01T06:46:19;16.20;;;5.13;;
22737;SDS011;11536;50.860;4.286;2022-09-01T06:48:47;12.65;;;5.10;;
22737;SDS011;11536;50.860;4.286;2022-09-01T06:51:14;14.10;;;5.20;;
22737;SDS011;11536;50.860;4.286;2022-09-01T06:53:42;13.75;;;4.90;;
22737;SDS011;11536;50.860;4.286;2022-09-01T06:56:09;20.85;;;5.22;;
22737;SDS011;11536;50.860;4.286;2022-09-01T06:58:37;13.77;;;5.47;;
22737;SDS011;11536;50.860;4.286;2022-09-01T07:01:11;11.50;;;5.55;;
22737;SDS011;11536;50.860;4.286;2022-09-01T07:03:39;15.73;;;5.65;;
22737;SDS011;11536;50.860;4.286;2022-09-01T07:06:09;20.80;;;5.20;;
22737;SDS011;11536;50.860;4.286;2022-09-01T07:08:35;14.05;;;5.45;;
22737;SDS011;11536;50.860;4.286;2022-09-01T07:11:04;12.52;;;5.90;;
22737;SDS011;11536;50.860;4.286;2022-09-01T07:13:32;14.60;;;5.00;;
22737;SDS011;11536;50.860;4.286;2022-09-01T07:15:59;12.27;;;5.10;;
22737;SDS011;11536;50.860;4.286;2022-09-01T07:18:28;11.35;;;4.97;;
22737;SDS011;11536;50.860;4.286;2022-09-01T07:20:55;11.15;;;4.80;;
22737;SDS011;11536;50.860;4.286;2022-09-01T07:23:21;12.90;;;5.43;;
22737;SDS011;11536;50.860;4.286;2022-09-01T07:25:48;11.38;;;5.45;;
22737;SDS011;11536;50.860;4.286;2022-09-01T07:28:20;11.50;;;5.45;;
22737;SDS011;11536;50.860;4.286;2022-09-01T07:30:50;10.00;;;5.90;;
22737;SDS011;11536;50.860;4.286;2022-09-01T07:33:19;15.07;;;5.22;;
22737;SDS011;11536;50.860;4.286;2022-09-01T07:35:47;12.88;;;4.72;;
22737;SDS011;11536;50.860;4.286;2022-09-01T07:38:18;10.07;;;4.90;;
22737;SDS011;11536;50.860;4.286;2022-09-01T07:40:44;9.38;;;5.05;;
22737;SDS011;11536;50.860;4.286;2022-09-01T07:43:18;10.43;;;4.90;;
22737;SDS011;11536;50.860;4.286;2022-09-01T07:45:49;13.30;;;4.82;;
22737;SDS011;11536;50.860;4.286;2022-09-01T07:48:16;10.85;;;4.45;;
22737;SDS011;11536;50.860;4.286;2022-09-01T07:50:45;8.75;;;4.75;;
22737;SDS011;11536;50.860;4.286;2022-09-01T07:53:16;8.52;;;4.53;;
22737;SDS011;11536;50.860;4.286;2022-09-01T07:55:44;9.70;;;4.90;;
22737;SDS011;11536;50.860;4.286;2022-09-01T07:58:11;17.08;;;5.93;;
22737;SDS011;11536;50.860;4.286;2022-09-01T08:00:41;12.43;;;5.18;;
22737;SDS011;11536;50.860;4.286;2022-09-01T08:03:28;14.77;;;5.32;;
22737;SDS011;11536;50.860;4.286;2022-09-01T08:05:54;13.02;;;5.78;;
22737;SDS011;11536;50.860;4.286;2022-09-01T08:08:25;10.77;;;4.57;;
22737;SDS011;11536;50.860;4.286;2022-09-01T08:10:51;12.15;;;4.75;;
22737;SDS011;11536;50.860;4.286;2022-09-01T08:13:17;13.35;;;5.10;;
22737;SDS011;11536;50.860;4.286;2022-09-01T08:15:43;12.13;;;4.75;;
22737;SDS011;11536;50.860;4.286;2022-09-01T08:18:09;12.77;;;5.32;;
22737;SDS011;11536;50.860;4.286;2022-09-01T08:20:36;10.07;;;4.90;;
22737;SDS011;11536;50.860;4.286;2022-09-01T08:23:05;12.82;;;6.75;;
22737;SDS011;11536;50.860;4.286;2022-09-01T08:25:32;10.73;;;5.78;;
22737;SDS011;11536;50.860;4.286;2022-09-01T08:28:00;13.38;;;5.28;;
22737;SDS011;11536;50.860;4.286;2022-09-01T08:30:26;15.98;;;5.13;;
22737;SDS011;11536;50.860;4.286;2022-09-01T08:32:53;10.27;;;4.32;;
22737;SDS011;11536;50.860;4.286;2022-09-01T08:35:19;8.95;;;3.85;;
22737;SDS011;11536;50.860;4.286;2022-09-01T08:37:45;11.55;;;4.07;;
22737;SDS011;11536;50.860;4.286;2022-09-01T08:40:11;10.93;;;3.97;;
22737;SDS011;11536;50.860;4.286;2022-09-01T08:48:23;8.13;;;3.58;;
22737;SDS011;11536;50.860;4.286;2022-09-01T08:50:53;11.23;;;3.80;;
22737;SDS011;11536;50.860;4.286;2022-09-01T08:56:13;8.05;;;3.53;;
22737;SDS011;11536;50.860;4.286;2022-09-01T08:58:42;8.00;;;3.17;;
22737;SDS011;11536;50.860;4.286;2022-09-01T09:01:14;9.48;;;3.45;;
22737;SDS011;11536;50.860;4.286;2022-09-01T09:07:09;6.95;;;3.22;;
22737;SDS011;11536;50.860;4.286;2022-09-01T09:09:57;7.97;;;3.40;;
22737;SDS011;11536;50.860;4.286;2022-09-01T09:15:26;7.10;;;2.83;;
22737;SDS011;11536;50.860;4.286;2022-09-01T09:17:57;7.20;;;3.13;;
22737;SDS011;11536;50.860;4.286;2022-09-01T09:20:28;11.68;;;2.92;;
22737;SDS011;11536;50.860;4.286;2022-09-01T09:22:53;8.02;;;2.83;;
22737;SDS011;11536;50.860;4.286;2022-09-01T09:25:19;6.18;;;2.70;;
22737;SDS011;11536;50.860;4.286;2022-09-01T09:27:49;4.82;;;2.42;;
22737;SDS011;11536;50.860;4.286;2022-09-01T09:30:19;5.70;;;2.60;;
22737;SDS011;11536;50.860;4.286;2022-09-01T09:35:30;5.13;;;2.10;;
22737;SDS011;11536;50.860;4.286;2022-09-01T09:38:32;7.55;;;2.38;;
22737;SDS011;11536;50.860;4.286;2022-09-01T09:43:28;5.15;;;2.20;;
22737;SDS011;11536;50.860;4.286;2022-09-01T09:51:34;4.65;;;2.35;;
22737;SDS011;11536;50.860;4.286;2022-09-01T09:56:43;5.57;;;2.17;;
22737;SDS011;11536;50.860;4.286;2022-09-01T09:59:23;6.88;;;2.20;;
22737;SDS011;11536;50.860;4.286;2022-09-01T10:04:36;6.90;;;1.90;;
22737;SDS011;11536;50.860;4.286;2022-09-01T10:10:08;5.40;;;2.10;;
22737;SDS011;11536;50.860;4.286;2022-09-01T10:12:54;4.45;;;1.77;;
22737;SDS011;11536;50.860;4.286;2022-09-01T10:15:22;3.85;;;1.70;;
22737;SDS011;11536;50.860;4.286;2022-09-01T10:17:51;3.83;;;1.98;;
22737;SDS011;11536;50.860;4.286;2022-09-01T10:20:23;5.57;;;1.52;;
22737;SDS011;11536;50.860;4.286;2022-09-01T10:22:50;5.55;;;1.70;;
22737;SDS011;11536;50.860;4.286;2022-09-01T10:25:18;3.78;;;1.45;;
22737;SDS011;11536;50.860;4.286;2022-09-01T10:27:47;5.70;;;1.42;;
22737;SDS011;11536;50.860;4.286;2022-09-01T10:30:17;4.32;;;1.60;;
22737;SDS011;11536;50.860;4.286;2022-09-01T10:32:59;4.13;;;1.52;;
22737;SDS011;11536;50.860;4.286;2022-09-01T10:35:29;5.05;;;1.70;;
22737;SDS011;11536;50.860;4.286;2022-09-01T10:38:02;3.72;;;1.52;;
22737;SDS011;11536;50.860;4.286;2022-09-01T10:45:49;7.40;;;1.70;;
22737;SDS011;11536;50.860;4.286;2022-09-01T10:50:50;3.40;;;1.33;;
22737;SDS011;11536;50.860;4.286;2022-09-01T10:56:14;5.10;;;2.05;;
22737;SDS011;11536;50.860;4.286;2022-09-01T11:09:28;3.15;;;1.40;;
22737;SDS011;11536;50.860;4.286;2022-09-01T11:12:43;4.10;;;1.80;;
22737;SDS011;11536;50.860;4.286;2022-09-01T11:15:03;5.32;;;1.42;;
22737;SDS011;11536;50.860;4.286;2022-09-01T11:25:53;5.40;;;1.45;;
22737;SDS011;11536;50.860;4.286;2022-09-01T11:36:25;4.30;;;1.20;;
22737;SDS011;11536;50.860;4.286;2022-09-01T11:47:34;4.43;;;1.50;;
22737;SDS011;11536;50.860;4.286;2022-09-01T11:50:06;3.70;;;1.48;;
22737;SDS011;11536;50.860;4.286;2022-09-01T11:52:53;3.67;;;1.48;;
22737;SDS011;11536;50.860;4.286;2022-09-01T11:55:31;6.43;;;1.50;;
22737;SDS011;11536;50.860;4.286;2022-09-01T11:58:04;4.10;;;1.92;;
22737;SDS011;11536;50.860;4.286;2022-09-01T12:00:35;3.78;;;1.50;;
22737;SDS011;11536;50.860;4.286;2022-09-01T12:03:04;4.15;;;1.25;;
22737;SDS011;11536;50.860;4.286;2022-09-01T12:06:09;5.05;;;1.48;;
22737;SDS011;11536;50.860;4.286;2022-09-01T12:08:38;4.50;;;1.35;;
22737;SDS011;11536;50.860;4.286;2022-09-01T12:13:59;4.85;;;1.60;;
22737;SDS011;11536;50.860;4.286;2022-09-01T12:18:55;3.78;;;1.40;;
22737;SDS011;11536;50.860;4.286;2022-09-01T12:23:48;4.35;;;1.58;;
22737;SDS011;11536;50.860;4.286;2022-09-01T12:26:15;4.65;;;1.40;;
22737;SDS011;11536;50.860;4.286;2022-09-01T12:28:44;5.90;;;1.83;;
22737;SDS011;11536;50.860;4.286;2022-09-01T12:31:14;3.13;;;1.45;;
22737;SDS011;11536;50.860;4.286;2022-09-01T12:33:45;5.45;;;1.63;;
22737;SDS011;11536;50.860;4.286;2022-09-01T12:36:20;3.05;;;1.35;;
22737;SDS011;11536;50.860;4.286;2022-09-01T12:38:55;4.72;;;1.48;;
22737;SDS011;11536;50.860;4.286;2022-09-01T12:41:41;4.72;;;1.70;;
22737;SDS011;11536;50.860;4.286;2022-09-01T12:44:27;3.88;;;1.60;;
22737;SDS011;11536;50.860;4.286;2022-09-01T12:46:56;3.75;;;1.60;;
22737;SDS011;11536;50.860;4.286;2022-09-01T12:49:25;3.95;;;1.67;;
22737;SDS011;11536;50.860;4.286;2022-09-01T12:52:13;4.85;;;1.67;;
22737;SDS011;11536;50.860;4.286;2022-09-01T12:54:46;4.63;;;1.52;;
22737;SDS011;11536;50.860;4.286;2022-09-01T13:00:07;6.13;;;1.75;;
22737;SDS011;11536;50.860;4.286;2022-09-01T13:07:58;4.30;;;1.40;;
22737;SDS011;11536;50.860;4.286;2022-09-01T13:10:29;4.57;;;1.70;;
22737;SDS011;11536;50.860;4.286;2022-09-01T13:13:15;4.57;;;1.30;;
22737;SDS011;11536;50.860;4.286;2022-09-01T13:15:44;3.55;;;1.48;;
22737;SDS011;11536;50.860;4.286;2022-09-01T13:18:12;5.05;;;1.40;;
22737;SDS011;11536;50.860;4.286;2022-09-01T13:20:39;3.15;;;1.50;;
22737;SDS011;11536;50.860;4.286;2022-09-01T13:23:05;3.15;;;1.33;;
22737;SDS011;11536;50.860;4.286;2022-09-01T13:25:31;5.53;;;1.55;;
22737;SDS011;11536;50.860;4.286;2022-09-01T13:27:57;3.22;;;1.23;;
22737;SDS011;11536;50.860;4.286;2022-09-01T13:30:25;4.80;;;1.50;;
22737;SDS011;11536;50.860;4.286;2022-09-01T13:32:53;4.05;;;1.67;;
22737;SDS011;11536;50.860;4.286;2022-09-01T13:35:20;4.07;;;1.35;;
22737;SDS011;11536;50.860;4.286;2022-09-01T13:37:47;4.70;;;1.48;;
22737;SDS011;11536;50.860;4.286;2022-09-01T13:40:14;4.40;;;1.40;;
22737;SDS011;11536;50.860;4.286;2022-09-01T13:42:41;5.45;;;1.70;;
22737;SDS011;11536;50.860;4.286;2022-09-01T13:45:08;6.75;;;1.50;;
22737;SDS011;11536;50.860;4.286;2022-09-01T13:47:37;4.93;;;1.45;;
22737;SDS011;11536;50.860;4.286;2022-09-01T13:50:05;5.13;;;1.50;;
22737;SDS011;11536;50.860;4.286;2022-09-01T13:52:31;6.65;;;1.58;;
22737;SDS011;11536;50.860;4.286;2022-09-01T13:54:57;3.22;;;1.42;;
22737;SDS011;11536;50.860;4.286;2022-09-01T13:57:23;5.13;;;1.60;;
22737;SDS011;11536;50.860;4.286;2022-09-01T13:59:48;5.03;;;1.90;;
22737;SDS011;11536;50.860;4.286;2022-09-01T14:02:16;3.65;;;1.50;;
22737;SDS011;11536;50.860;4.286;2022-09-01T14:04:41;3.63;;;1.55;;
22737;SDS011;11536;50.860;4.286;2022-09-01T14:07:07;3.88;;;1.45;;
22737;SDS011;11536;50.860;4.286;2022-09-01T14:09:34;3.47;;;1.30;;
22737;SDS011;11536;50.860;4.286;2022-09-01T14:11:59;3.33;;;1.30;;
22737;SDS011;11536;50.860;4.286;2022-09-01T14:14:25;4.95;;;1.40;;
22737;SDS011;11536;50.860;4.286;2022-09-01T14:16:51;4.85;;;1.52;;
22737;SDS011;11536;50.860;4.286;2022-09-01T14:19:18;3.15;;;1.50;;
22737;SDS011;11536;50.860;4.286;2022-09-01T14:21:43;6.50;;;1.45;;
22737;SDS011;11536;50.860;4.286;2022-09-01T14:24:09;4.13;;;1.40;;
22737;SDS011;11536;50.860;4.286;2022-09-01T14:26:34;3.20;;;1.40;;
22737;SDS011;11536;50.860;4.286;2022-09-01T14:29:00;3.33;;;1.52;;
22737;SDS011;11536;50.860;4.286;2022-09-01T14:31:26;3.35;;;1.27;;
22737;SDS011;11536;50.860;4.286;2022-09-01T14:33:53;4.40;;;1.48;;
22737;SDS011;11536;50.860;4.286;2022-09-01T14:36:21;4.60;;;1.58;;
22737;SDS011;11536;50.860;4.286;2022-09-01T14:38:48;7.53;;;1.70;;
22737;SDS011;11536;50.860;4.286;2022-09-01T14:41:15;4.80;;;1.40;;
22737;SDS011;11536;50.860;4.286;2022-09-01T14:46:20;3.38;;;1.50;;
22737;SDS011;11536;50.860;4.286;2022-09-01T14:48:46;4.68;;;1.50;;
22737;SDS011;11536;50.860;4.286;2022-09-01T14:51:23;3.28;;;1.40;;
22737;SDS011;11536;50.860;4.286;2022-09-01T14:53:51;3.45;;;1.23;;
22737;SDS011;11536;50.860;4.286;2022-09-01T14:56:17;4.05;;;1.48;;
22737;SDS011;11536;50.860;4.286;2022-09-01T14:58:44;4.05;;;1.40;;
22737;SDS011;11536;50.860;4.286;2022-09-01T15:01:14;5.85;;;1.88;;
22737;SDS011;11536;50.860;4.286;2022-09-01T15:03:41;3.22;;;1.13;;
22737;SDS011;11536;50.860;4.286;2022-09-01T15:06:07;6.53;;;1.48;;
22737;SDS011;11536;50.860;4.286;2022-09-01T15:08:43;5.78;;;1.35;;
22737;SDS011;11536;50.860;4.286;2022-09-01T15:11:09;4.22;;;1.95;;
22737;SDS011;11536;50.860;4.286;2022-09-01T15:13:37;2.58;;;1.40;;
22737;SDS011;11536;50.860;4.286;2022-09-01T15:16:03;3.35;;;1.30;;
22737;SDS011;11536;50.860;4.286;2022-09-01T15:18:30;7.63;;;1.52;;
22737;SDS011;11536;50.860;4.286;2022-09-01T15:20:55;4.57;;;1.30;;
22737;SDS011;11536;50.860;4.286;2022-09-01T15:23:22;5.20;;;1.33;;
22737;SDS011;11536;50.860;4.286;2022-09-01T15:25:50;5.47;;;1.33;;
22737;SDS011;11536;50.860;4.286;2022-09-01T15:28:18;5.90;;;1.38;;
22737;SDS011;11536;50.860;4.286;2022-09-01T15:30:44;7.00;;;1.52;;
22737;SDS011;11536;50.860;4.286;2022-09-01T15:33:11;4.53;;;1.60;;
22737;SDS011;11536;50.860;4.286;2022-09-01T15:35:39;4.43;;;1.33;;
22737;SDS011;11536;50.860;4.286;2022-09-01T15:38:05;10.18;;;1.40;;
22737;SDS011;11536;50.860;4.286;2022-09-01T15:40:31;3.65;;;1.10;;
22737;SDS011;11536;50.860;4.286;2022-09-01T15:42:58;4.53;;;1.27;;
22737;SDS011;11536;50.860;4.286;2022-09-01T15:45:25;4.13;;;1.25;;
22737;SDS011;11536;50.860;4.286;2022-09-01T15:47:52;5.78;;;1.58;;
22737;SDS011;11536;50.860;4.286;2022-09-01T15:50:19;3.08;;;1.02;;
22737;SDS011;11536;50.860;4.286;2022-09-01T15:53:01;6.15;;;1.20;;
22737;SDS011;11536;50.860;4.286;2022-09-01T15:55:45;4.15;;;1.17;;
22737;SDS011;11536;50.860;4.286;2022-09-01T15:58:13;3.28;;;1.10;;
22737;SDS011;11536;50.860;4.286;2022-09-01T16:00:40;4.68;;;1.23;;
22737;SDS011;11536;50.860;4.286;2022-09-01T16:03:06;3.42;;;1.15;;
22737;SDS011;11536;50.860;4.286;2022-09-01T16:05:36;3.65;;;1.10;;
22737;SDS011;11536;50.860;4.286;2022-09-01T16:08:05;3.88;;;1.30;;
22737;SDS011;11536;50.860;4.286;2022-09-01T16:10:33;2.50;;;0.80;;
22737;SDS011;11536;50.860;4.286;2022-09-01T16:13:00;4.72;;;1.10;;
22737;SDS011;11536;50.860;4.286;2022-09-01T16:15:26;3.72;;;1.20;;
22737;SDS011;11536;50.860;4.286;2022-09-01T16:17:58;2.60;;;1.02;;
22737;SDS011;11536;50.860;4.286;2022-09-01T16:20:38;3.47;;;1.10;;
22737;SDS011;11536;50.860;4.286;2022-09-01T16:23:09;4.53;;;1.10;;
22737;SDS011;11536;50.860;4.286;2022-09-01T16:25:40;3.13;;;1.10;;
22737;SDS011;11536;50.860;4.286;2022-09-01T16:28:15;3.50;;;1.10;;
22737;SDS011;11536;50.860;4.286;2022-09-01T16:30:58;4.15;;;1.20;;
22737;SDS011;11536;50.860;4.286;2022-09-01T16:39:14;3.08;;;0.95;;
22737;SDS011;11536;50.860;4.286;2022-09-01T16:41:49;5.18;;;1.13;;
22737;SDS011;11536;50.860;4.286;2022-09-01T16:44:22;2.72;;;0.90;;
22737;SDS011;11536;50.860;4.286;2022-09-01T16:50:35;3.42;;;1.10;;